Time;durP1;ratioP1;P1;durP2;ratioP2;P2;SDS_P1;SDS_P2;PMS_P1;PMS_P2;Temp;Humidity;BMP_temperature;BMP_pressure;BME280_temperature;BME280_humidity;BME280_pressure;Samples;Min_cycle;Max_cycle;Signal;HPM_P1;HPM_P2
2023/06/10 00:01:18;;;;;;;12.38;4.75;;;;;;;;;;6227063;23;20078;-94
2023/06/10 00:03:44;;;;;;;7.90;4.70;;;;;;;;;;6243922;23;20008;-95
2023/06/10 00:06:11;;;;;;;11.95;4.45;;;;;;;;;;6226785;23;20012;-94
2023/06/10 00:08:39;;;;;;;9.77;4.88;;;;;;;;;;6242071;23;20008;-94
2023/06/10 00:11:08;;;;;;;9.23;4.82;;;;;;;;;;6227702;23;20008;-94
2023/06/10 00:13:35;;;;;;;7.10;4.85;;;;;;;;;;6242276;22;20035;-94
2023/06/10 00:16:01;;;;;;;13.23;5.70;;;;;;;;;;6226995;23;20023;-94
2023/06/10 00:18:31;;;;;;;9.32;4.65;;;;;;;;;;6241422;23;20410;-93
2023/06/10 00:21:03;;;;;;;14.13;5.65;;;;;;;;;;6228718;23;20012;-94
2023/06/10 00:23:50;;;;;;;12.32;5.22;;;;;;;;;;6242898;22;20016;-95
2023/06/10 00:26:16;;;;;;;9.02;5.00;;;;;;;;;;6252453;22;20015;-94
2023/06/10 00:28:42;;;;;;;10.70;5.47;;;;;;;;;;6244044;22;20460;-94
2023/06/10 00:31:09;;;;;;;12.55;6.38;;;;;;;;;;6228459;23;20099;-94
2023/06/10 00:34:18;;;;;;;13.27;5.38;;;;;;;;;;6243564;22;20011;-95
2023/06/10 00:37:03;;;;;;;10.73;6.03;;;;;;;;;;6197724;23;20004;-94
2023/06/10 00:39:42;;;;;;;12.40;5.78;;;;;;;;;;6253571;23;20015;-94
2023/06/10 00:42:10;;;;;;;14.13;5.72;;;;;;;;;;6252063;22;20004;-94
2023/06/10 00:44:37;;;;;;;13.18;5.72;;;;;;;;;;6243106;23;20019;-94
2023/06/10 00:47:03;;;;;;;10.57;5.28;;;;;;;;;;6229077;23;20066;-94
2023/06/10 00:49:35;;;;;;;10.70;5.43;;;;;;;;;;6243080;22;20043;-94
2023/06/10 00:52:02;;;;;;;14.43;5.45;;;;;;;;;;6253688;23;20494;-93
2023/06/10 00:54:29;;;;;;;14.38;6.63;;;;;;;;;;6242910;22;20000;-94
2023/06/10 00:59:44;;;;;;;14.60;6.13;;;;;;;;;;6208140;23;20031;-94
2023/06/10 01:02:10;;;;;;;13.88;6.28;;;;;;;;;;6251688;23;20000;-93
2023/06/10 01:04:36;;;;;;;11.23;5.60;;;;;;;;;;6244232;23;20004;-93
2023/06/10 01:07:09;;;;;;;14.93;6.53;;;;;;;;;;6230228;23;20498;-96
2023/06/10 01:09:39;;;;;;;15.20;5.53;;;;;;;;;;6245886;23;20028;-92
2023/06/10 01:12:11;;;;;;;12.07;5.63;;;;;;;;;;6254575;23;19996;-93
2023/06/10 01:14:44;;;;;;;10.98;5.38;;;;;;;;;;6245435;23;20008;-94
2023/06/10 01:17:23;;;;;;;16.45;5.53;;;;;;;;;;6232172;23;20008;-94
2023/06/10 01:19:57;;;;;;;12.25;4.97;;;;;;;;;;6248857;23;20054;-93
2023/06/10 01:22:26;;;;;;;13.85;5.78;;;;;;;;;;6256026;23;20008;-92
2023/06/10 01:27:39;;;;;;;15.47;6.10;;;;;;;;;;6257771;23;20063;-92
2023/06/10 01:30:33;;;;;;;13.00;5.13;;;;;;;;;;6254118;23;20063;-94
2023/06/10 01:33:00;;;;;;;9.05;4.85;;;;;;;;;;6253512;22;20099;-93
2023/06/10 01:35:31;;;;;;;13.48;5.20;;;;;;;;;;6256877;23;20007;-94
2023/06/10 01:38:03;;;;;;;13.90;5.25;;;;;;;;;;6255353;23;20008;-94
2023/06/10 01:40:30;;;;;;;11.82;4.78;;;;;;;;;;6257056;23;20004;-94
2023/06/10 01:42:57;;;;;;;7.97;4.45;;;;;;;;;;6258343;22;20035;-94
2023/06/10 01:45:23;;;;;;;8.70;4.38;;;;;;;;;;6230243;23;20068;-94
2023/06/10 01:47:49;;;;;;;18.35;5.60;;;;;;;;;;6231993;23;20008;-94
2023/06/10 01:50:16;;;;;;;12.85;4.82;;;;;;;;;;6257810;22;20001;-95
2023/06/10 01:52:46;;;;;;;9.95;4.90;;;;;;;;;;6230720;23;20001;-94
2023/06/10 01:55:12;;;;;;;9.93;4.90;;;;;;;;;;6231795;23;20015;-95
2023/06/10 01:58:02;;;;;;;11.90;4.68;;;;;;;;;;6257693;22;20008;-92
2023/06/10 02:03:15;;;;;;;;;;;;;;;;;;6203065;23;20040;-93
2023/06/10 02:05:41;;;;;;;11.27;4.80;;;;;;;;;;6263896;23;19903;-94
2023/06/10 02:08:14;;;;;;;9.40;4.40;;;;;;;;;;6239551;23;20008;-95
2023/06/10 02:10:43;;;;;;;9.60;4.28;;;;;;;;;;6262467;23;20000;-94
2023/06/10 02:13:10;;;;;;;11.25;4.70;;;;;;;;;;6260938;23;20007;-94
2023/06/10 02:15:39;;;;;;;12.65;4.07;;;;;;;;;;6238134;23;20019;-95
2023/06/10 02:18:19;;;;;;;;;;;;;;;;;;;;;
2023/06/10 02:20:46;;;;;;;10.35;5.03;;;;;;;;;;6262215;23;20008;-93
2023/06/10 02:23:48;;;;;;;16.20;4.78;;;;;;;;;;6262404;22;20071;-94
2023/06/10 02:26:14;;;;;;;8.65;4.43;;;;;;;;;;6256311;23;20033;-93
2023/06/10 02:29:00;;;;;;;;;;;;;;;;;;;;;
2023/06/10 02:31:40;;;;;;;17.17;4.45;;;;;;;;;;6257791;22;20036;-94
2023/06/10 02:34:07;;;;;;;13.07;4.22;;;;;;;;;;6250424;22;20024;-93
2023/06/10 02:36:35;;;;;;;17.45;4.63;;;;;;;;;;6234414;22;20023;-94
2023/06/10 02:39:05;;;;;;;8.70;4.93;;;;;;;;;;6259255;22;20536;-92
2023/06/10 02:41:31;;;;;;;17.40;5.72;;;;;;;;;;6259040;22;20066;-94
2023/06/10 02:44:01;;;;;;;11.73;4.90;;;;;;;;;;6233286;22;20016;-95
2023/06/10 02:46:31;;;;;;;11.27;5.35;;;;;;;;;;6232835;22;20046;-95
2023/06/10 02:48:58;;;;;;;11.25;4.50;;;;;;;;;;6233907;22;20008;-93
2023/06/10 02:51:31;;;;;;;11.82;4.63;;;;;;;;;;6259017;22;20107;-94
2023/06/10 02:54:01;;;;;;;13.32;5.22;;;;;;;;;;6231972;22;20098;-93
2023/06/10 02:56:32;;;;;;;16.10;4.40;;;;;;;;;;6260121;22;20004;-94
2023/06/10 02:59:00;;;;;;;9.13;4.60;;;;;;;;;;6260331;22;20003;-94
2023/06/10 03:01:45;;;;;;;9.45;4.47;;;;;;;;;;6234745;22;20016;-94
2023/06/10 03:04:14;;;;;;;11.02;4.28;;;;;;;;;;6260035;22;20035;-93
2023/06/10 03:06:42;;;;;;;14.07;4.93;;;;;;;;;;6260265;22;20007;-93
2023/06/10 03:09:08;;;;;;;18.05;4.88;;;;;;;;;;6260201;22;20109;-92
2023/06/10 03:11:54;;;;;;;13.48;4.68;;;;;;;;;;6260791;22;20079;-91
2023/06/10 03:14:21;;;;;;;;;;;;;;;;;;6261607;22;20004;-93
2023/06/10 03:16:48;;;;;;;10.85;4.60;;;;;;;;;;6260134;22;19903;-92
2023/06/10 03:19:14;;;;;;;16.02;4.63;;;;;;;;;;6259774;22;20129;-94
2023/06/10 03:21:48;;;;;;;9.95;4.75;;;;;;;;;;6260002;22;20419;-94
2023/06/10 03:24:15;;;;;;;12.27;5.47;;;;;;;;;;6235209;22;20012;-94
2023/06/10 03:26:41;;;;;;;11.90;5.35;;;;;;;;;;6234814;22;20012;-95
2023/06/10 03:29:10;;;;;;;12.25;5.05;;;;;;;;;;6235041;22;20445;-94
2023/06/10 03:31:37;;;;;;;12.40;5.22;;;;;;;;;;6233354;22;20047;-94
2023/06/10 03:34:03;;;;;;;11.43;5.18;;;;;;;;;;6235307;22;20007;-94
2023/06/10 03:36:30;;;;;;;10.13;5.32;;;;;;;;;;6234093;22;20011;-94
2023/06/10 03:38:56;;;;;;;13.98;5.50;;;;;;;;;;6229481;22;20031;-95
2023/06/10 03:41:23;;;;;;;14.82;5.90;;;;;;;;;;6235245;22;20038;-93
2023/06/10 03:43:52;;;;;;;12.10;5.03;;;;;;;;;;6234426;22;20008;-94
2023/06/10 03:46:21;;;;;;;13.10;5.45;;;;;;;;;;6234576;22;20012;-93
2023/06/10 03:48:48;;;;;;;14.73;5.60;;;;;;;;;;6235753;22;20008;-93
2023/06/10 03:51:14;;;;;;;20.70;6.63;;;;;;;;;;6233683;22;20011;-93
2023/06/10 03:53:41;;;;;;;17.42;6.43;;;;;;;;;;6233549;22;20011;-91
2023/06/10 03:56:34;;;;;;;14.32;5.80;;;;;;;;;;6234007;22;20348;-93
2023/06/10 03:59:01;;;;;;;17.73;5.80;;;;;;;;;;6217623;22;20148;-94
2023/06/10 04:01:46;;;;;;;19.98;6.75;;;;;;;;;;6258403;22;20030;-95
2023/06/10 04:04:16;;;;;;;14.20;5.85;;;;;;;;;;6238976;22;20018;-94
2023/06/10 04:06:44;;;;;;;14.98;6.25;;;;;;;;;;6261387;22;20063;-93
2023/06/10 04:12:20;;;;;;;13.27;6.53;;;;;;;;;;6243134;22;20523;-94
2023/06/10 04:15:10;;;;;;;14.65;6.43;;;;;;;;;;6237086;22;20010;-94
2023/06/10 04:20:23;;;;;;;;;;;;;;;;;;6204894;22;20004;-94
2023/06/10 04:22:49;;;;;;;13.80;5.95;;;;;;;;;;6260219;22;19899;-92
2023/06/10 04:25:28;;;;;;;;;;;;;;;;;;;;;
2023/06/10 04:27:57;;;;;;;14.48;5.85;;;;;;;;;;6266145;22;20045;-93
2023/06/10 04:30:36;;;;;;;15.30;7.15;;;;;;;;;;6263086;22;20011;-94
2023/06/10 04:33:02;;;;;;;17.27;6.93;;;;;;;;;;6233932;22;20023;-93
2023/06/10 04:35:28;;;;;;;16.50;6.72;;;;;;;;;;6231745;23;20000;-92
2023/06/10 04:40:44;;;;;;;15.35;6.57;;;;;;;;;;6215663;23;20009;-93
2023/06/10 04:43:11;;;;;;;13.60;6.57;;;;;;;;;;6257374;22;20011;-92
2023/06/10 04:45:46;;;;;;;19.55;6.22;;;;;;;;;;6231490;23;20529;-93
2023/06/10 04:48:14;;;;;;;19.50;7.87;;;;;;;;;;6260143;22;19997;-94
2023/06/10 04:50:40;;;;;;;16.70;6.90;;;;;;;;;;6259747;22;20008;-94
2023/06/10 04:53:38;;;;;;;14.07;6.03;;;;;;;;;;6261636;23;20046;-94
2023/06/10 04:56:07;;;;;;;18.77;6.45;;;;;;;;;;6203959;23;20072;-94
2023/06/10 04:58:34;;;;;;;18.45;5.90;;;;;;;;;;6232698;23;20457;-93
2023/06/10 05:01:12;;;;;;;21.15;6.63;;;;;;;;;;6261532;23;20000;-92
2023/06/10 05:07:00;;;;;;;21.27;6.40;;;;;;;;;;6236315;23;20013;-94
2023/06/10 05:09:34;;;;;;;14.82;6.05;;;;;;;;;;6262761;22;20007;-94
2023/06/10 05:12:02;;;;;;;11.52;5.07;;;;;;;;;;6234257;23;20027;-94
2023/06/10 05:14:29;;;;;;;17.00;6.18;;;;;;;;;;6257770;23;20004;-94
2023/06/10 05:16:55;;;;;;;11.40;5.20;;;;;;;;;;6232805;23;20019;-93
2023/06/10 05:19:22;;;;;;;18.98;6.30;;;;;;;;;;6256560;22;20012;-93
2023/06/10 05:21:48;;;;;;;17.35;6.40;;;;;;;;;;6255416;22;20047;-94
2023/06/10 05:24:14;;;;;;;16.70;5.85;;;;;;;;;;6256148;23;20009;-94
2023/06/10 05:26:41;;;;;;;13.98;5.93;;;;;;;;;;6255577;23;20062;-93
2023/06/10 05:29:08;;;;;;;15.73;6.32;;;;;;;;;;6256649;23;19996;-94
2023/06/10 05:31:34;;;;;;;10.50;5.35;;;;;;;;;;6235378;22;20015;-94
2023/06/10 05:34:00;;;;;;;19.92;6.00;;;;;;;;;;6237497;22;20011;-94
2023/06/10 05:36:29;;;;;;;13.23;5.15;;;;;;;;;;6236646;22;20003;-94
2023/06/10 05:38:55;;;;;;;17.23;6.05;;;;;;;;;;6262389;22;20003;-94
2023/06/10 05:41:22;;;;;;;13.00;5.47;;;;;;;;;;6235388;22;20011;-93
2023/06/10 05:43:49;;;;;;;13.40;5.30;;;;;;;;;;6235225;22;20015;-94
2023/06/10 05:46:15;;;;;;;22.83;5.47;;;;;;;;;;6236193;22;20071;-94
2023/06/10 05:48:41;;;;;;;14.52;5.80;;;;;;;;;;6260363;22;20004;-94
2023/06/10 05:51:08;;;;;;;11.93;5.32;;;;;;;;;;6233787;22;20450;-94
2023/06/10 05:53:38;;;;;;;10.07;5.40;;;;;;;;;;6237014;22;20014;-93
2023/06/10 05:56:10;;;;;;;13.02;5.43;;;;;;;;;;6235526;22;20007;-94
2023/06/10 05:58:37;;;;;;;11.35;5.40;;;;;;;;;;6237857;22;20018;-93
2023/06/10 06:01:13;;;;;;;16.98;4.82;;;;;;;;;;6239968;22;20098;-94
2023/06/10 06:03:46;;;;;;;13.70;6.80;;;;;;;;;;6235558;22;20007;-93
2023/06/10 06:06:12;;;;;;;10.93;5.35;;;;;;;;;;6288156;22;20493;-93
2023/06/10 06:08:38;;;;;;;16.92;5.45;;;;;;;;;;6236918;22;20014;-94
2023/06/10 06:11:05;;;;;;;14.35;5.03;;;;;;;;;;6235620;22;20015;-93
2023/06/10 06:13:34;;;;;;;13.73;6.45;;;;;;;;;;6237196;22;20004;-95
2023/06/10 06:16:00;;;;;;;18.95;5.45;;;;;;;;;;6262405;22;20015;-94
2023/06/10 06:18:27;;;;;;;10.70;5.18;;;;;;;;;;6239405;22;20449;-94
2023/06/10 06:20:53;;;;;;;11.05;5.60;;;;;;;;;;6263865;22;20003;-93
2023/06/10 06:23:22;;;;;;;12.30;5.13;;;;;;;;;;6238030;22;20024;-94
2023/06/10 06:25:48;;;;;;;18.60;6.63;;;;;;;;;;6261722;22;20038;-94
2023/06/10 06:28:18;;;;;;;13.38;4.97;;;;;;;;;;6260410;22;20477;-94
2023/06/10 06:30:48;;;;;;;13.88;5.63;;;;;;;;;;6234745;22;20007;-94
2023/06/10 06:33:21;;;;;;;18.15;5.75;;;;;;;;;;6256278;22;20020;-94
2023/06/10 06:35:47;;;;;;;13.25;5.45;;;;;;;;;;6232931;23;20075;-94
2023/06/10 06:38:34;;;;;;;14.25;5.40;;;;;;;;;;6231037;23;20398;-94
2023/06/10 06:41:06;;;;;;;14.90;5.82;;;;;;;;;;6231377;23;20016;-95
2023/06/10 06:43:35;;;;;;;13.38;5.63;;;;;;;;;;6231481;23;20351;-95
2023/06/10 06:46:02;;;;;;;11.48;5.63;;;;;;;;;;6231041;23;20071;-93
2023/06/10 06:48:28;;;;;;;13.95;5.53;;;;;;;;;;6231276;23;20020;-93
2023/06/10 06:51:01;;;;;;;13.18;5.82;;;;;;;;;;6231744;23;20004;-94
2023/06/10 06:53:27;;;;;;;8.98;5.00;;;;;;;;;;6256567;22;20119;-93
2023/06/10 06:55:53;;;;;;;12.95;5.28;;;;;;;;;;6257499;22;20012;-94
2023/06/10 06:58:22;;;;;;;11.13;5.20;;;;;;;;;;6231900;23;20012;-94
2023/06/10 07:00:52;;;;;;;16.30;5.40;;;;;;;;;;6233548;23;20080;-95
2023/06/10 07:03:18;;;;;;;17.25;6.88;;;;;;;;;;6231672;23;20091;-95
2023/06/10 07:05:44;;;;;;;12.32;5.43;;;;;;;;;;6231494;23;20024;-94
2023/06/10 07:08:13;;;;;;;11.30;5.95;;;;;;;;;;6233292;23;20007;-94
2023/06/10 07:10:39;;;;;;;9.77;4.82;;;;;;;;;;6238952;23;19996;-95
2023/06/10 07:13:08;;;;;;;8.13;4.70;;;;;;;;;;6265752;22;20012;-94
2023/06/10 07:15:34;;;;;;;10.63;5.28;;;;;;;;;;6244263;23;20015;-94
2023/06/10 07:18:00;;;;;;;13.60;5.35;;;;;;;;;;6244418;22;20004;-94
2023/06/10 07:20:27;;;;;;;9.15;5.15;;;;;;;;;;6245788;23;19992;-92
2023/06/10 07:22:53;;;;;;;8.30;4.70;;;;;;;;;;6244991;23;20011;-92
2023/06/10 07:25:19;;;;;;;8.65;5.18;;;;;;;;;;6270192;22;20026;-93
2023/06/10 07:27:45;;;;;;;14.43;6.00;;;;;;;;;;6270872;22;20059;-94
2023/06/10 07:30:12;;;;;;;11.02;4.85;;;;;;;;;;6245871;22;20003;-94
2023/06/10 07:32:45;;;;;;;9.10;4.68;;;;;;;;;;6268956;22;20023;-93
2023/06/10 07:35:15;;;;;;;6.90;3.90;;;;;;;;;;6264470;22;20042;-94
2023/06/10 07:37:41;;;;;;;9.45;3.95;;;;;;;;;;6238642;23;20048;-94
2023/06/10 07:40:07;;;;;;;11.20;4.95;;;;;;;;;;6260767;23;20004;-94
2023/06/10 07:42:36;;;;;;;12.25;4.32;;;;;;;;;;6233087;23;20035;-93
2023/06/10 07:45:02;;;;;;;10.88;5.25;;;;;;;;;;6257289;23;20449;-94
2023/06/10 07:47:31;;;;;;;8.98;4.63;;;;;;;;;;6255119;23;20066;-94
2023/06/10 07:49:57;;;;;;;10.52;4.13;;;;;;;;;;6230018;23;20004;-93
2023/06/10 07:52:24;;;;;;;8.63;4.28;;;;;;;;;;6254699;22;20070;-94
2023/06/10 07:54:50;;;;;;;9.02;4.97;;;;;;;;;;6254904;22;20507;-94
2023/06/10 07:57:16;;;;;;;11.00;4.10;;;;;;;;;;6255362;22;20064;-94
2023/06/10 07:59:44;;;;;;;11.00;4.30;;;;;;;;;;6254278;23;20008;-95
2023/06/10 08:02:10;;;;;;;7.78;4.15;;;;;;;;;;6229443;23;20008;-94
2023/06/10 08:04:36;;;;;;;8.55;3.95;;;;;;;;;;6254395;22;20015;-94
2023/06/10 08:07:03;;;;;;;8.32;3.90;;;;;;;;;;6256251;22;20008;-94
2023/06/10 08:09:29;;;;;;;15.63;5.07;;;;;;;;;;6254693;23;20441;-95
2023/06/10 08:11:55;;;;;;;13.55;4.53;;;;;;;;;;6255730;22;20004;-94
2023/06/10 08:14:25;;;;;;;10.18;4.97;;;;;;;;;;6229601;23;20000;-94
2023/06/10 08:16:52;;;;;;;12.60;4.20;;;;;;;;;;6255735;23;20102;-94
2023/06/10 08:19:18;;;;;;;10.18;4.10;;;;;;;;;;6230253;23;20213;-94
2023/06/10 08:21:44;;;;;;;10.70;4.50;;;;;;;;;;6254843;23;20464;-94
2023/06/10 08:24:10;;;;;;;11.07;4.25;;;;;;;;;;6255209;23;20000;-95
2023/06/10 08:26:46;;;;;;;10.75;4.95;;;;;;;;;;6255363;23;20015;-94
2023/06/10 08:29:13;;;;;;;10.60;4.35;;;;;;;;;;6254615;23;20066;-95
2023/06/10 08:31:44;;;;;;;13.07;4.10;;;;;;;;;;6231600;22;20008;-94
2023/06/10 08:34:18;;;;;;;8.55;3.95;;;;;;;;;;6282716;22;20008;-94
2023/06/10 08:36:45;;;;;;;9.85;4.05;;;;;;;;;;6238258;22;20094;-94
2023/06/10 08:39:24;;;;;;;8.15;4.22;;;;;;;;;;6260527;22;20003;-94
2023/06/10 08:42:08;;;;;;;10.77;3.95;;;;;;;;;;6260541;22;20034;-94
2023/06/10 08:44:39;;;;;;;7.93;3.97;;;;;;;;;;6236559;22;20061;-94
2023/06/10 08:47:17;;;;;;;10.32;3.97;;;;;;;;;;6262872;22;20012;-95
2023/06/10 08:50:03;;;;;;;7.43;3.92;;;;;;;;;;6265659;22;20011;-95
2023/06/10 08:53:08;;;;;;;12.70;4.72;;;;;;;;;;6265572;22;20004;-94
2023/06/10 08:56:23;;;;;;;13.48;5.68;;;;;;;;;;6264905;22;20003;-94
2023/06/10 08:58:33;;;;;;;16.20;4.15;;;;;;;;;;6252164;22;20049;-94
2023/06/10 09:00:59;;;;;;;7.95;4.40;;;;;;;;;;6266949;22;20011;-94
2023/06/10 09:03:49;;;;;;;6.97;4.40;;;;;;;;;;6267001;22;20007;-94
2023/06/10 09:06:18;;;;;;;9.32;3.80;;;;;;;;;;6263655;22;20020;-95
2023/06/10 09:14:44;;;;;;;10.02;3.97;;;;;;;;;;6287543;22;20342;-95
2023/06/10 09:17:27;;;;;;;7.95;4.10;;;;;;;;;;6266768;22;20008;-95
2023/06/10 09:19:56;;;;;;;6.80;4.35;;;;;;;;;;6266375;22;20015;-95
2023/06/10 09:25:17;;;;;;;8.82;4.22;;;;;;;;;;6291026;22;20434;-94
2023/06/10 09:28:20;;;;;;;10.88;4.35;;;;;;;;;;6265224;22;20008;-94
2023/06/10 09:31:09;;;;;;;8.90;4.10;;;;;;;;;;6230428;23;20009;-95
2023/06/10 09:33:41;;;;;;;11.00;4.78;;;;;;;;;;6191035;22;20074;-95
2023/06/10 09:36:18;;;;;;;10.10;4.63;;;;;;;;;;6202001;23;20004;-94
2023/06/10 09:39:05;;;;;;;10.05;4.35;;;;;;;;;;6205686;23;20059;-95
2023/06/10 09:42:07;;;;;;;9.80;4.10;;;;;;;;;;6227062;23;20062;-95
2023/06/10 09:44:40;;;;;;;8.93;4.15;;;;;;;;;;6225333;23;20076;-93
2023/06/10 09:47:10;;;;;;;5.35;4.05;;;;;;;;;;6197176;23;20021;-96
2023/06/10 10:05:18;;;;;;;7.63;4.07;;;;;;;;;;6109003;23;20066;-96
2023/06/10 10:07:51;;;;;;;5.90;3.35;;;;;;;;;;6213465;23;20093;-96
2023/06/10 10:13:21;;;;;;;7.95;4.35;;;;;;;;;;6258296;23;20030;-95
2023/06/10 10:18:36;;;;;;;12.00;4.25;;;;;;;;;;6290289;22;20025;-94
2023/06/10 10:21:09;;;;;;;8.50;4.07;;;;;;;;;;6265595;22;20007;-95
2023/06/10 10:23:59;;;;;;;9.90;4.75;;;;;;;;;;6290599;22;20011;-96
2023/06/10 10:26:49;;;;;;;7.18;4.30;;;;;;;;;;6263586;22;20015;-96
2023/06/10 10:29:34;;;;;;;10.52;4.68;;;;;;;;;;6243930;22;20011;-95
2023/06/10 10:32:37;;;;;;;7.95;4.63;;;;;;;;;;6263464;22;20000;-96
2023/06/10 10:35:27;;;;;;;6.22;4.05;;;;;;;;;;6265174;22;20094;-95
2023/06/10 10:38:03;;;;;;;6.95;3.83;;;;;;;;;;6263677;22;20007;-95
2023/06/10 10:40:37;;;;;;;9.13;5.00;;;;;;;;;;6265562;22;20037;-95
2023/06/10 10:43:21;;;;;;;15.77;4.63;;;;;;;;;;6266419;22;20026;-96
2023/06/10 10:46:03;;;;;;;8.68;5.03;;;;;;;;;;6265762;22;20072;-96
2023/06/10 10:48:45;;;;;;;11.63;3.90;;;;;;;;;;6260720;22;20010;-95
2023/06/10 10:51:46;;;;;;;8.18;4.30;;;;;;;;;;6261827;22;20322;-96
2023/06/10 10:54:34;;;;;;;6.90;4.40;;;;;;;;;;6224316;23;20009;-94
2023/06/10 10:57:47;;;;;;;;;;;;;;;;;;;;;
2023/06/10 11:00:22;;;;;;;9.73;4.35;;;;;;;;;;6217751;23;20023;-96
2023/06/10 11:02:57;;;;;;;11.25;4.70;;;;;;;;;;6198896;23;20473;-95
2023/06/10 11:05:48;;;;;;;7.70;4.05;;;;;;;;;;6202555;23;20039;-96
2023/06/10 11:08:43;;;;;;;11.90;4.65;;;;;;;;;;6225071;23;20008;-96
2023/06/10 11:11:45;;;;;;;9.32;4.70;;;;;;;;;;6199024;23;20088;-96
2023/06/10 11:14:28;;;;;;;12.05;4.25;;;;;;;;;;6105368;23;20010;-95
2023/06/10 11:17:24;;;;;;;8.93;3.88;;;;;;;;;;6107530;23;20357;-95
2023/06/10 11:19:51;;;;;;;8.75;4.50;;;;;;;;;;6108326;23;20048;-95
2023/06/10 11:22:30;;;;;;;7.80;4.25;;;;;;;;;;6083904;23;20065;-96
2023/06/10 11:25:32;;;;;;;10.68;4.05;;;;;;;;;;6107504;23;20017;-96
2023/06/10 11:28:19;;;;;;;5.13;3.83;;;;;;;;;;6126749;23;20055;-95
2023/06/10 11:31:29;;;;;;;7.13;4.28;;;;;;;;;;6208870;22;20001;-95
2023/06/10 11:33:56;;;;;;;8.40;4.60;;;;;;;;;;6196027;22;20200;-95
2023/06/10 11:42:40;;;;;;;5.32;3.33;;;;;;;;;;6030311;23;20012;-96
2023/06/10 11:45:39;;;;;;;7.75;3.72;;;;;;;;;;6195762;23;20443;-96
2023/06/10 11:48:18;;;;;;;9.20;3.50;;;;;;;;;;6113751;23;20368;-95
2023/06/10 11:51:07;;;;;;;6.40;3.45;;;;;;;;;;6113314;23;20016;-94
2023/06/10 11:53:46;;;;;;;12.77;4.40;;;;;;;;;;6112970;23;20137;-95
2023/06/10 11:56:13;;;;;;;6.32;3.72;;;;;;;;;;6148823;23;20078;-96
2023/06/10 11:58:45;;;;;;;9.98;4.88;;;;;;;;;;6170804;23;20012;-96
2023/06/10 12:04:18;;;;;;;8.02;4.07;;;;;;;;;;6221668;23;20026;-96
2023/06/10 12:13:39;;;;;;;9.77;4.20;;;;;;;;;;6138468;23;20452;-96
2023/06/10 12:16:28;;;;;;;7.50;3.72;;;;;;;;;;6113725;23;20010;-95
2023/06/10 12:19:17;;;;;;;7.55;3.95;;;;;;;;;;6113413;23;20009;-95
2023/06/10 12:25:59;;;;;;;4.78;3.67;;;;;;;;;;6111629;23;20010;-96
2023/06/10 12:31:30;;;;;;;6.50;3.57;;;;;;;;;;6072567;23;20013;-95
2023/06/10 12:34:34;;;;;;;6.53;3.97;;;;;;;;;;6095980;23;20218;-95
2023/06/10 12:37:01;;;;;;;10.60;4.20;;;;;;;;;;6108971;23;20010;-95
2023/06/10 12:39:43;;;;;;;6.75;3.72;;;;;;;;;;6146551;23;20070;-95
2023/06/10 12:42:21;;;;;;;6.15;3.95;;;;;;;;;;6144618;23;20002;-95
2023/06/10 12:45:00;;;;;;;15.45;5.65;;;;;;;;;;6096625;23;20289;-94
2023/06/10 12:47:50;;;;;;;6.40;3.80;;;;;;;;;;6164245;23;20005;-96
2023/06/10 12:50:20;;;;;;;8.77;4.53;;;;;;;;;;6280501;22;20039;-96
2023/06/10 12:52:55;;;;;;;13.63;4.70;;;;;;;;;;6246159;22;20035;-96
2023/06/10 12:55:54;;;;;;;9.40;4.68;;;;;;;;;;6249146;22;20011;-96
2023/06/10 12:58:28;;;;;;;7.95;3.83;;;;;;;;;;6270524;22;20042;-95
2023/06/10 13:00:54;;;;;;;7.35;3.83;;;;;;;;;;6269093;22;20023;-96
2023/06/10 13:06:06;;;;;;;11.07;4.03;;;;;;;;;;6272142;22;20065;-96
2023/06/10 13:14:19;;;;;;;9.75;3.70;;;;;;;;;;6171583;23;20033;-96
2023/06/10 13:17:06;;;;;;;6.78;3.55;;;;;;;;;;6144912;23;20005;-96
2023/06/10 13:22:39;;;;;;;8.63;3.70;;;;;;;;;;6140064;23;20129;-96
2023/06/10 13:25:08;;;;;;;8.45;3.92;;;;;;;;;;6196324;22;20004;-96
2023/06/10 13:27:45;;;;;;;11.15;4.13;;;;;;;;;;6266384;22;19998;-96
2023/06/10 13:36:34;;;;;;;7.60;3.55;;;;;;;;;;6247882;22;20085;-96
2023/06/10 13:41:54;;;;;;;18.10;12.43;;;;;;;;;;6292050;22;20038;-95
2023/06/10 13:44:36;;;;;;;11.77;5.15;;;;;;;;;;6262253;22;19999;-96
2023/06/10 13:47:08;;;;;;;13.50;3.65;;;;;;;;;;6240064;22;20038;-96
2023/06/10 13:50:14;;;;;;;10.82;3.72;;;;;;;;;;6265210;22;20004;-95
2023/06/10 13:52:55;;;;;;;6.63;3.13;;;;;;;;;;6202795;23;20088;-96
2023/06/10 13:55:24;;;;;;;6.55;3.78;;;;;;;;;;6203541;23;20064;-96
2023/06/10 13:57:54;;;;;;;7.97;3.38;;;;;;;;;;6250602;22;20012;-96
2023/06/10 14:03:55;;;;;;;8.05;3.35;;;;;;;;;;6198973;22;20031;-96
2023/06/10 14:06:25;;;;;;;9.00;3.50;;;;;;;;;;6242158;22;20008;-96
2023/06/10 14:08:51;;;;;;;9.35;3.47;;;;;;;;;;6237798;22;20585;-96
2023/06/10 14:11:29;;;;;;;7.05;3.15;;;;;;;;;;6238119;22;20012;-95
2023/06/10 14:13:58;;;;;;;7.88;3.35;;;;;;;;;;6237487;22;20028;-96
2023/06/10 14:16:26;;;;;;;4.45;3.05;;;;;;;;;;6260730;22;20040;-96
2023/06/10 14:18:52;;;;;;;13.80;3.88;;;;;;;;;;6262434;22;20033;-96
2023/06/10 14:21:25;;;;;;;4.45;3.47;;;;;;;;;;6261065;22;20012;-96
2023/06/10 14:24:02;;;;;;;5.72;3.25;;;;;;;;;;6238067;22;20007;-96
2023/06/10 14:26:32;;;;;;;7.38;4.05;;;;;;;;;;6237985;22;20457;-96
2023/06/10 14:31:45;;;;;;;6.93;3.38;;;;;;;;;;6289790;22;20030;-96
2023/06/10 14:34:13;;;;;;;4.65;2.80;;;;;;;;;;6230371;22;20092;-96
2023/06/10 14:39:50;;;;;;;7.88;3.33;;;;;;;;;;6241695;22;20008;-96
2023/06/10 14:42:17;;;;;;;5.78;3.00;;;;;;;;;;6235813;22;20067;-96
2023/06/10 14:44:44;;;;;;;4.57;2.90;;;;;;;;;;6256520;23;20427;-96
2023/06/10 14:47:14;;;;;;;7.47;3.20;;;;;;;;;;6230556;23;20012;-96
2023/06/10 14:49:47;;;;;;;8.32;3.17;;;;;;;;;;6230732;23;20236;-96
2023/06/10 14:52:16;;;;;;;5.07;3.42;;;;;;;;;;6231542;23;20015;-96
2023/06/10 14:54:44;;;;;;;5.45;2.65;;;;;;;;;;6259422;23;20419;-96
2023/06/10 14:57:22;;;;;;;10.38;3.17;;;;;;;;;;6233118;23;20301;-96
2023/06/10 14:59:52;;;;;;;9.18;3.13;;;;;;;;;;6235487;23;20012;-96
2023/06/10 15:02:19;;;;;;;4.63;3.25;;;;;;;;;;6258368;23;20034;-96
2023/06/10 15:05:06;;;;;;;5.85;3.15;;;;;;;;;;6257127;23;20012;-96
2023/06/10 15:07:52;;;;;;;5.45;2.78;;;;;;;;;;6260204;23;20012;-96
2023/06/10 15:10:18;;;;;;;8.02;3.33;;;;;;;;;;6230968;23;20043;-96
2023/06/10 15:12:45;;;;;;;4.75;3.67;;;;;;;;;;6257170;23;20330;-96
2023/06/10 15:15:11;;;;;;;9.18;3.45;;;;;;;;;;6230832;23;20039;-96
2023/06/10 15:17:37;;;;;;;11.13;2.92;;;;;;;;;;6230494;23;20012;-96
2023/06/10 15:20:05;;;;;;;4.75;2.85;;;;;;;;;;6231168;23;20015;-96
2023/06/10 15:22:33;;;;;;;6.22;3.15;;;;;;;;;;6232935;23;20004;-96
2023/06/10 15:24:59;;;;;;;6.20;3.53;;;;;;;;;;6233232;23;20059;-96
2023/06/10 15:27:25;;;;;;;6.38;3.78;;;;;;;;;;6234532;23;20018;-96
2023/06/10 15:29:52;;;;;;;6.25;3.47;;;;;;;;;;6235459;23;20366;-96
2023/06/10 15:32:18;;;;;;;9.65;3.20;;;;;;;;;;6236513;23;20020;-95
2023/06/10 15:34:53;;;;;;;4.25;2.78;;;;;;;;;;6261947;22;20024;-96
2023/06/10 15:37:26;;;;;;;4.55;2.88;;;;;;;;;;6263525;23;20022;-95
2023/06/10 15:39:52;;;;;;;6.32;2.80;;;;;;;;;;6256383;23;20020;-96
2023/06/10 15:42:18;;;;;;;5.22;3.08;;;;;;;;;;6237402;23;20011;-96
2023/06/10 15:44:45;;;;;;;5.85;3.30;;;;;;;;;;6255756;22;20028;-95
2023/06/10 15:47:14;;;;;;;6.53;2.88;;;;;;;;;;6236173;23;20012;-95
2023/06/10 15:49:43;;;;;;;3.80;2.83;;;;;;;;;;6249882;23;20000;-96
2023/06/10 15:52:19;;;;;;;4.97;2.97;;;;;;;;;;6257013;23;20028;-96
2023/06/10 15:54:48;;;;;;;6.97;3.13;;;;;;;;;;6249049;23;20000;-96
2023/06/10 15:57:19;;;;;;;6.85;3.15;;;;;;;;;;6256654;23;20008;-95
2023/06/10 15:59:45;;;;;;;6.68;2.80;;;;;;;;;;6248557;22;20012;-96
2023/06/10 16:02:12;;;;;;;6.05;3.08;;;;;;;;;;6255015;23;20076;-96
2023/06/10 16:04:41;;;;;;;5.70;3.20;;;;;;;;;;6246427;22;20035;-96
2023/06/10 16:07:07;;;;;;;8.63;3.55;;;;;;;;;;6231284;23;20042;-96
2023/06/10 16:09:34;;;;;;;7.47;3.05;;;;;;;;;;6243807;23;20000;-96
2023/06/10 16:12:05;;;;;;;10.55;7.60;;;;;;;;;;6229202;23;20015;-96
2023/06/10 16:14:34;;;;;;;13.27;7.10;;;;;;;;;;6244032;23;20004;-96
2023/06/10 16:17:01;;;;;;;15.50;4.53;;;;;;;;;;6254606;23;20031;-96
2023/06/10 16:19:31;;;;;;;7.28;4.15;;;;;;;;;;6243984;22;20008;-96
2023/06/10 16:21:59;;;;;;;16.38;11.82;;;;;;;;;;6254732;23;20031;-96
2023/06/10 16:24:26;;;;;;;15.18;8.77;;;;;;;;;;6257682;22;20008;-96
2023/06/10 16:27:11;;;;;;;7.85;5.55;;;;;;;;;;6249704;22;20014;-96
2023/06/10 16:29:41;;;;;;;;;;;;;;;;;;6256197;23;20008;-96
2023/06/10 16:32:20;;;;;;;11.52;7.90;;;;;;;;;;6254709;23;19910;-96
2023/06/10 16:34:46;;;;;;;8.82;6.55;;;;;;;;;;6247366;22;20020;-96
2023/06/10 16:37:12;;;;;;;7.13;3.47;;;;;;;;;;6231955;23;20020;-96
2023/06/10 16:39:39;;;;;;;8.07;5.18;;;;;;;;;;6245737;22;20016;-96
2023/06/10 16:42:21;;;;;;;9.95;5.65;;;;;;;;;;6231444;23;20016;-95
2023/06/10 16:44:47;;;;;;;5.70;2.92;;;;;;;;;;6249415;22;20012;-96
2023/06/10 16:47:26;;;;;;;;;;;;;;;;;;;;;
2023/06/10 16:49:54;;;;;;;7.28;3.20;;;;;;;;;;6251454;23;20024;-96
2023/06/10 16:52:25;;;;;;;8.55;2.80;;;;;;;;;;6231993;23;20035;-96
2023/06/10 16:54:52;;;;;;;8.50;3.22;;;;;;;;;;6250088;22;20011;-96
2023/06/10 16:57:22;;;;;;;5.50;3.05;;;;;;;;;;6257845;23;20043;-96